Portada
METAR-TAF:

METAR-TAF

Aeroports :

Lar, Iran

latitud: 27-40-26N, longitud: 054-22-53E, altitud: 792 m

Observació

L'informe es va fer fa 43 minuts, a les 07:00 UTC
Vent calma
Temperatura 37°C
Humitat 42%
Pressió 1004 hPa

METAR: OISL 200700Z 00000KT CAVO 37/22 Q1004

Hora: 12:13 (07:43 UTC)

Pronòstic

L'informe es va fer fa 2 hores i 13 minuts, a les 05:30 UTC
Pronòstic vàlid del 20 a les 06 UTC al 21 a les 12 UTC
Vent 6 kt del Oest/Nord-Oest
Visibilitat: 7000 m
Temporalment
l' 20 a les 12 UTC al 20 a les 18 UTC
Vent 14 kt del Oest
Escasses núvols a una alçada de 3500 ft, Cumulonimbus.
Núvols disperses a una alçada de 4000 ft
Probabilitat 40%
l' 20 a les 14 UTC al 20 a les 18 UTC
tempesta, pluja

TAF: OISL 200530Z 2006/2112 30006KT 7000 NSC TEMPO 2012/2018 26014KT FEW035CB SCT040 PROB40 2014/2018 TSRA

Observacions i pronòstics meteorològics de més de 4000 aeroports (METAR i TAF).

Les estacions disponibles són els punts grocs i vermells al mapa.

Posi el ratolí al punt desitjat per veure el nom de l'estació.

Feu clic per veure les observacions i els pronòstics meteorològics.

Per canviar el mapa: feu clic els botons verds amb una creu de color negre per apropar; al botó verd amb un guió per allunyar la imatge; o en les fletxes verdes per a mapes adjacents.


METAR-TAF: